Time;durP1;ratioP1;P1;durP2;ratioP2;P2;SDS_P1;SDS_P2;PMS_P1;PMS_P2;Temp;Humidity;BMP_temperature;BMP_pressure;BME280_temperature;BME280_humidity;BME280_pressure;Samples;Min_cycle;Max_cycle;Signal;HPM_P1;HPM_P2
2022/01/12 00:02:06;;;;;;;65.43;19.02;;;5.50;99.90;;;;;;5055643;28;20439;-82
2022/01/12 00:04:31;;;;;;;70.38;18.98;;;5.50;99.90;;;;;;5055405;28;20101;-82
2022/01/12 00:06:57;;;;;;;58.78;19.25;;;5.50;99.90;;;;;;5055128;28;20033;-81
2022/01/12 00:09:23;;;;;;;61.70;19.42;;;5.70;99.90;;;;;;5055293;28;20048;-81
2022/01/12 00:11:49;;;;;;;64.70;20.58;;;5.60;99.90;;;;;;5055494;28;20124;-82
2022/01/12 00:14:16;;;;;;;61.55;19.27;;;5.70;99.90;;;;;;5055438;28;20087;-82
2022/01/12 00:16:46;;;;;;;57.08;17.77;;;5.60;99.90;;;;;;5055268;28;20090;-82
2022/01/12 00:19:12;;;;;;;;;;;5.60;99.90;;;;;;5055809;28;20392;-82
2022/01/12 00:21:37;;;;;;;70.22;19.25;;;5.60;99.90;;;;;;5055148;28;19905;-82
2022/01/12 00:24:03;;;;;;;82.63;19.80;;;5.70;99.90;;;;;;5055099;28;20033;-82
2022/01/12 00:34:37;;;;;;;73.25;19.08;;;5.70;99.90;;;;;;5055097;28;20039;-82
2022/01/12 00:37:02;;;;;;;78.32;19.70;;;5.80;99.90;;;;;;5054709;28;20021;-82
2022/01/12 00:39:28;;;;;;;232.88;25.33;;;5.70;99.90;;;;;;5054811;28;20025;-82
2022/01/12 00:41:54;;;;;;;86.35;19.92;;;5.70;99.90;;;;;;5055100;28;20017;-82
2022/01/12 00:44:24;;;;;;;84.47;21.08;;;5.80;99.90;;;;;;5054917;28;20032;-82
2022/01/12 00:46:51;;;;;;;78.80;18.33;;;5.70;99.90;;;;;;5052969;28;20566;-82
2022/01/12 00:49:18;;;;;;;97.53;19.40;;;5.90;99.90;;;;;;5054507;28;20029;-82
2022/01/12 00:51:43;;;;;;;77.55;19.23;;;5.90;99.90;;;;;;5054865;28;20060;-82
2022/01/12 00:54:09;;;;;;;92.82;19.88;;;5.80;99.90;;;;;;5054519;28;20065;-82
2022/01/12 00:56:35;;;;;;;76.40;18.80;;;5.80;99.90;;;;;;5054472;28;20392;-82
2022/01/12 00:59:02;;;;;;;65.03;18.10;;;5.90;99.90;;;;;;5054402;28;20029;-82
2022/01/12 01:01:28;;;;;;;89.45;18.15;;;5.90;99.90;;;;;;5054416;28;20021;-82
2022/01/12 01:03:54;;;;;;;83.28;16.65;;;5.80;99.90;;;;;;5053992;28;20025;-82
2022/01/12 01:06:21;;;;;;;76.38;17.23;;;6.00;99.90;;;;;;5054379;28;20032;-82
2022/01/12 01:08:50;;;;;;;113.45;19.48;;;5.80;99.90;;;;;;5054475;28;20029;-82
2022/01/12 01:11:17;;;;;;;73.22;17.55;;;5.90;99.90;;;;;;5054667;28;20504;-82
2022/01/12 01:13:54;;;;;;;54.08;14.60;;;5.80;99.90;;;;;;5053008;28;20033;-82
2022/01/12 01:16:27;;;;;;;57.03;15.43;;;6.00;99.90;;;;;;5054532;28;20033;-82
2022/01/12 01:27:06;;;;;;;33.88;11.55;;;6.10;99.90;;;;;;5054107;28;20036;-82
2022/01/12 01:29:33;;;;;;;35.25;11.13;;;6.20;99.90;;;;;;5054033;28;20016;-82
2022/01/12 01:31:59;;;;;;;27.02;8.75;;;6.20;99.90;;;;;;5052626;28;20025;-82
2022/01/12 01:34:27;;;;;;;27.65;7.22;;;6.20;99.90;;;;;;5053535;28;20107;-82
2022/01/12 01:36:54;;;;;;;11.43;3.35;;;6.10;99.90;;;;;;5052393;28;20116;-81
2022/01/12 01:39:23;;;;;;;12.43;3.63;;;6.10;99.90;;;;;;5053631;28;20112;-82
2022/01/12 01:42:00;;;;;;;3.78;1.67;;;6.10;99.90;;;;;;5033906;28;20017;-82
2022/01/12 01:55:10;;;;;;;9.93;2.15;;;6.10;99.90;;;;;;5033573;28;20044;-82
2022/01/12 01:57:36;;;;;;;9.20;2.97;;;6.20;99.90;;;;;;5051413;28;20111;-82
2022/01/12 02:00:06;;;;;;;7.03;1.83;;;6.10;99.90;;;;;;5051895;28;20021;-82
2022/01/12 02:02:31;;;;;;;8.73;2.92;;;5.80;99.90;;;;;;5052156;28;20584;-82
2022/01/12 02:04:57;;;;;;;7.38;2.30;;;5.60;99.90;;;;;;5051884;28;20029;-81
2022/01/12 02:07:24;;;;;;;10.20;2.60;;;5.20;99.90;;;;;;5053349;28;20081;-82
2022/01/12 02:09:49;;;;;;;8.07;2.40;;;5.10;99.90;;;;;;5052924;28;20536;-82
2022/01/12 02:12:24;;;;;;;7.13;2.40;;;4.90;99.90;;;;;;5053279;28;20127;-82
2022/01/12 02:14:50;;;;;;;6.32;1.95;;;4.70;99.90;;;;;;5052948;28;20033;-82
2022/01/12 02:17:20;;;;;;;7.70;2.08;;;4.50;99.90;;;;;;5053353;28;20103;-82
2022/01/12 02:20:07;;;;;;;6.47;2.15;;;4.40;99.90;;;;;;5053233;28;20392;-82
2022/01/12 02:36:24;;;;;;;3.40;1.70;;;3.50;99.90;;;;;;5053119;28;20044;-82
2022/01/12 02:41:34;;;;;;;4.40;1.75;;;3.20;99.90;;;;;;5052945;28;20036;-82
2022/01/12 02:54:43;;;;;;;8.55;1.67;;;2.80;99.90;;;;;;5052852;28;20033;-81
2022/01/12 02:57:09;;;;;;;5.22;1.60;;;2.60;99.90;;;;;;5051285;28;20115;-81
2022/01/12 02:59:34;;;;;;;4.43;1.70;;;2.70;99.90;;;;;;5052537;28;20159;-82
2022/01/12 03:02:26;;;;;;;7.03;1.95;;;2.50;99.90;;;;;;5052401;28;20104;-81
2022/01/12 03:05:20;;;;;;;10.50;2.75;;;2.60;99.90;;;;;;5051060;28;20033;-81
2022/01/12 03:07:39;;;;;;;17.05;4.88;;;2.40;99.90;;;;;;5052050;28;20037;-81
2022/01/12 03:10:07;;;;;;;16.30;5.25;;;2.40;99.90;;;;;;5055667;28;20150;-81
2022/01/12 03:12:35;;;;;;;47.50;13.13;;;2.40;99.90;;;;;;5056626;28;20025;-81
2022/01/12 03:15:00;;;;;;;39.40;13.02;;;2.40;99.90;;;;;;5056601;28;20095;-81
2022/01/12 03:17:26;;;;;;;25.42;7.25;;;2.30;99.90;;;;;;5056328;28;20029;-82
2022/01/12 03:19:51;;;;;;;15.35;4.82;;;2.10;99.90;;;;;;5056434;28;20036;-81
2022/01/12 03:22:17;;;;;;;15.45;5.32;;;2.10;99.90;;;;;;5055992;28;20028;-82
2022/01/12 03:24:42;;;;;;;17.90;5.30;;;2.00;99.90;;;;;;5056107;28;20035;-82
2022/01/12 03:27:13;;;;;;;16.88;5.53;;;2.10;99.90;;;;;;5056206;28;20624;-81
2022/01/12 03:29:41;;;;;;;15.75;4.63;;;2.00;99.90;;;;;;5055049;28;20048;-82
2022/01/12 03:32:10;;;;;;;17.52;4.13;;;1.90;99.90;;;;;;5055054;28;20384;-81
2022/01/12 03:34:37;;;;;;;29.38;4.22;;;1.90;99.90;;;;;;5054538;28;20017;-81
2022/01/12 03:39:48;;;;;;;15.38;3.40;;;2.20;99.90;;;;;;5056106;28;20031;-81
2022/01/12 03:42:13;;;;;;;17.98;4.20;;;2.30;99.90;;;;;;5055987;28;20443;-81
2022/01/12 03:44:39;;;;;;;16.50;4.22;;;2.10;99.90;;;;;;5055792;28;20029;-81
2022/01/12 03:47:05;;;;;;;12.57;4.35;;;2.10;99.90;;;;;;5055625;28;20033;-81
2022/01/12 03:49:30;;;;;;;13.90;4.38;;;2.00;99.90;;;;;;5055937;28;20061;-81
2022/01/12 03:51:56;;;;;;;13.82;4.78;;;2.20;99.90;;;;;;5056073;28;20025;-81
2022/01/12 03:54:21;;;;;;;11.05;3.90;;;2.20;99.90;;;;;;5054520;28;20491;-81
2022/01/12 03:56:47;;;;;;;9.02;3.30;;;2.10;99.90;;;;;;5055535;28;20104;-82
2022/01/12 03:59:14;;;;;;;8.55;3.60;;;2.00;99.90;;;;;;5055452;28;20028;-81
2022/01/12 04:01:39;;;;;;;11.07;3.70;;;1.90;99.90;;;;;;5055512;28;20033;-82
2022/01/12 04:04:09;;;;;;;9.88;3.38;;;1.80;99.90;;;;;;5055659;28;20112;-81
2022/01/12 04:09:19;;;;;;;7.32;2.13;;;1.70;99.90;;;;;;5055470;28;20082;-81
2022/01/12 04:11:45;;;;;;;7.18;2.03;;;1.70;99.90;;;;;;5054429;28;20404;-82
2022/01/12 04:14:10;;;;;;;6.85;1.65;;;1.80;99.90;;;;;;5055327;28;20029;-81
2022/01/12 04:16:37;;;;;;;4.95;1.67;;;1.70;99.90;;;;;;5055159;28;20017;-81
2022/01/12 04:19:04;;;;;;;6.10;2.00;;;1.60;99.90;;;;;;5055430;28;20028;-81
2022/01/12 04:21:31;;;;;;;5.65;1.83;;;1.40;99.90;;;;;;5054363;28;20052;-81
2022/01/12 04:23:58;;;;;;;7.47;2.55;;;1.40;99.90;;;;;;5053769;28;20054;-81
2022/01/12 04:26:26;;;;;;;5.57;2.20;;;1.40;99.90;;;;;;5054947;28;20025;-81
2022/01/12 04:28:52;;;;;;;13.63;4.38;;;1.30;99.90;;;;;;5055212;28;20089;-81
2022/01/12 04:31:17;;;;;;;11.18;4.13;;;1.40;99.90;;;;;;5055036;28;20092;-82
2022/01/12 04:33:45;;;;;;;10.27;3.85;;;1.30;99.90;;;;;;5055205;28;20029;-81
2022/01/12 04:36:12;;;;;;;11.85;3.50;;;1.30;99.90;;;;;;5053881;28;20400;-81
2022/01/12 04:38:39;;;;;;;11.63;3.28;;;1.20;99.90;;;;;;5055401;28;20029;-81
2022/01/12 04:41:07;;;;;;;11.77;4.05;;;1.30;99.90;;;;;;5054641;28;20467;-81
2022/01/12 04:43:42;;;;;;;11.95;4.10;;;1.20;99.90;;;;;;5054928;28;20029;-81
2022/01/12 04:46:52;;;;;;;48.72;7.82;;;1.20;99.90;;;;;;5055089;28;20036;-81
2022/01/12 04:49:10;;;;;;;149.45;15.20;;;1.20;99.90;;;;;;5051502;28;20036;-82
2022/01/12 04:51:36;;;;;;;23.67;5.60;;;1.10;99.90;;;;;;5055249;28;20029;-81
2022/01/12 04:54:03;;;;;;;39.00;6.43;;;1.00;99.90;;;;;;5053431;28;20051;-81
2022/01/12 04:56:29;;;;;;;19.20;5.18;;;1.10;99.90;;;;;;5054943;28;20542;-82
2022/01/12 04:58:55;;;;;;;18.77;6.30;;;1.10;99.90;;;;;;5054457;28;20021;-81
2022/01/12 05:01:26;;;;;;;20.33;6.35;;;1.00;99.90;;;;;;5054522;28;20051;-82
2022/01/12 05:06:44;;;;;;;13.13;5.20;;;0.90;99.90;;;;;;5054626;28;20726;-82
2022/01/12 05:09:47;;;;;;;19.83;6.10;;;0.80;99.90;;;;;;5054581;28;20049;-81
2022/01/12 05:15:10;;;;;;;15.23;5.20;;;0.60;99.90;;;;;;5054639;28;20108;-82
2022/01/12 05:17:36;;;;;;;14.68;5.75;;;0.80;99.90;;;;;;5054582;28;20079;-81
2022/01/12 05:20:01;;;;;;;18.63;5.55;;;0.80;99.90;;;;;;5054223;28;20013;-82
2022/01/12 05:22:27;;;;;;;17.17;4.80;;;0.70;99.90;;;;;;5053004;28;20024;-82
2022/01/12 05:24:52;;;;;;;26.27;4.40;;;0.90;99.90;;;;;;5052788;28;20028;-81
2022/01/12 05:27:18;;;;;;;23.35;3.20;;;0.80;99.90;;;;;;5054151;28;20358;-82
2022/01/12 05:29:44;;;;;;;14.52;1.67;;;0.70;99.90;;;;;;5053968;28;20024;-81
2022/01/12 05:32:10;;;;;;;14.10;1.77;;;0.80;99.90;;;;;;5053758;28;20021;-82
2022/01/12 05:34:37;;;;;;;13.55;2.08;;;0.90;99.90;;;;;;5054054;28;20112;-81
2022/01/12 05:37:03;;;;;;;11.85;1.90;;;0.90;99.90;;;;;;5052650;28;20032;-81
2022/01/12 05:39:28;;;;;;;16.00;2.38;;;0.80;99.90;;;;;;5052582;28;20025;-81
2022/01/12 05:41:54;;;;;;;15.23;1.70;;;1.00;99.90;;;;;;5054040;28;20074;-81
2022/01/12 05:44:22;;;;;;;12.68;1.60;;;0.90;99.90;;;;;;5053775;28;20412;-81
2022/01/12 05:46:48;;;;;;;24.02;2.03;;;0.80;99.90;;;;;;5053516;28;20055;-81
2022/01/12 05:51:58;;;;;;;12.57;1.40;;;0.90;99.90;;;;;;5053668;28;20063;-81
2022/01/12 05:54:23;;;;;;;15.82;1.75;;;0.80;99.90;;;;;;5053623;28;20049;-82
2022/01/12 05:56:49;;;;;;;20.05;1.48;;;0.70;99.90;;;;;;5053632;28;20428;-81
2022/01/12 05:59:14;;;;;;;7.93;1.42;;;0.90;99.90;;;;;;5053478;28;20054;-82
2022/01/12 06:01:40;;;;;;;15.68;2.42;;;0.70;99.90;;;;;;5048974;28;20025;-81
2022/01/12 06:04:05;;;;;;;8.15;2.83;;;0.80;99.90;;;;;;5033337;28;20462;-81
2022/01/12 06:06:31;;;;;;;8.57;2.45;;;0.90;99.90;;;;;;5032266;28;20025;-81
2022/01/12 06:08:56;;;;;;;21.20;3.70;;;0.90;99.90;;;;;;5033083;28;20036;-81
2022/01/12 06:11:23;;;;;;;11.02;2.90;;;1.00;99.90;;;;;;5033536;28;20057;-82
2022/01/12 06:13:50;;;;;;;11.10;5.43;;;1.00;99.90;;;;;;5033151;28;20071;-82
2022/01/12 06:16:16;;;;;;;7.72;3.10;;;0.90;99.90;;;;;;5033592;28;20018;-82
2022/01/12 06:18:41;;;;;;;7.57;2.72;;;1.10;99.90;;;;;;5033107;28;20052;-82
2022/01/12 06:21:07;;;;;;;7.63;2.60;;;1.10;99.90;;;;;;5052556;28;20079;-82
2022/01/12 06:23:32;;;;;;;9.35;2.03;;;1.00;99.90;;;;;;5052953;28;20043;-81
2022/01/12 06:25:58;;;;;;;8.57;2.70;;;0.90;99.90;;;;;;5052805;28;20037;-82
2022/01/12 06:31:10;;;;;;;3.58;1.75;;;1.00;99.90;;;;;;5053169;28;20469;-81
2022/01/12 06:33:47;;;;;;;2.85;1.50;;;0.90;99.90;;;;;;5052835;28;20079;-82
2022/01/12 06:36:16;;;;;;;4.32;1.90;;;0.80;99.90;;;;;;5052853;28;20067;-81
2022/01/12 06:38:41;;;;;;;4.57;2.13;;;0.90;99.90;;;;;;5051599;28;20076;-82
2022/01/12 06:41:07;;;;;;;3.03;1.95;;;0.80;99.90;;;;;;5052797;28;20056;-82
2022/01/12 06:43:50;;;;;;;3.33;1.52;;;0.80;99.90;;;;;;5042464;28;20075;-82
2022/01/12 06:46:19;;;;;;;7.03;1.50;;;0.70;99.90;;;;;;5054047;28;20154;-82
2022/01/12 06:49:03;;;;;;;1.95;0.80;;;0.80;99.90;;;;;;5053908;28;20408;-82
2022/01/12 06:51:29;;;;;;;2.60;1.30;;;0.70;99.90;;;;;;5040729;28;20052;-82
2022/01/12 06:53:54;;;;;;;5.15;1.58;;;0.80;99.90;;;;;;5035386;28;20110;-82
2022/01/12 06:56:21;;;;;;;6.30;1.92;;;0.80;99.90;;;;;;5037518;28;20369;-82
2022/01/12 06:58:47;;;;;;;30.98;4.05;;;0.60;99.90;;;;;;5038319;28;20021;-82
2022/01/12 07:01:13;;;;;;;34.03;4.15;;;0.80;99.90;;;;;;5038560;28;20134;-82
2022/01/12 07:03:38;;;;;;;10.07;3.42;;;0.70;99.90;;;;;;5040503;28;20044;-82
2022/01/12 07:06:04;;;;;;;5.05;4.13;;;0.80;99.90;;;;;;5043510;28;20114;-82
2022/01/12 07:08:32;;;;;;;6.70;3.60;;;0.70;99.90;;;;;;5036559;28;20122;-82
2022/01/12 07:10:58;;;;;;;4.35;2.45;;;0.70;99.90;;;;;;5038878;28;20123;-82
2022/01/12 07:13:23;;;;;;;3.83;2.10;;;0.50;99.90;;;;;;5039177;28;20499;-82
2022/01/12 07:15:49;;;;;;;4.22;2.38;;;0.50;99.90;;;;;;5030653;28;20061;-81
2022/01/12 07:18:14;;;;;;;17.67;4.30;;;0.50;99.90;;;;;;5038162;28;20377;-81
2022/01/12 07:20:40;;;;;;;29.90;9.85;;;0.50;99.90;;;;;;5051285;28;20040;-82
2022/01/12 07:23:06;;;;;;;28.02;9.30;;;0.40;99.90;;;;;;5051236;28;20025;-84
2022/01/12 07:25:32;;;;;;;20.75;9.85;;;0.50;99.90;;;;;;5050081;28;20082;-82
2022/01/12 07:27:57;;;;;;;18.95;9.07;;;0.60;99.90;;;;;;5040498;28;20025;-82
2022/01/12 07:30:24;;;;;;;142.52;14.77;;;0.70;99.90;;;;;;5032039;28;20053;-82
2022/01/12 07:32:51;;;;;;;25.40;7.20;;;0.50;99.90;;;;;;5050919;28;20112;-82
2022/01/12 07:35:16;;;;;;;70.20;8.10;;;0.50;99.90;;;;;;5050785;28;20036;-82
2022/01/12 07:37:42;;;;;;;10.90;4.20;;;0.50;99.90;;;;;;5050831;28;20021;-82
2022/01/12 07:40:08;;;;;;;29.33;4.43;;;0.60;99.90;;;;;;5051379;28;20465;-82
2022/01/12 07:42:35;;;;;;;32.25;4.28;;;0.50;99.90;;;;;;5049231;28;20501;-82
2022/01/12 07:45:01;;;;;;;17.40;3.20;;;0.60;99.90;;;;;;5051445;28;20104;-83
2022/01/12 07:47:28;;;;;;;6.70;2.38;;;0.40;99.90;;;;;;5051157;28;20493;-83
2022/01/12 07:49:55;;;;;;;5.32;1.90;;;0.50;99.90;;;;;;5050930;28;20059;-82
2022/01/12 07:52:21;;;;;;;23.70;3.05;;;0.50;99.90;;;;;;5050623;28;20059;-82
2022/01/12 07:54:46;;;;;;;51.67;4.82;;;0.30;99.90;;;;;;5050506;28;20029;-80
2022/01/12 07:57:12;;;;;;;15.07;3.75;;;0.30;99.90;;;;;;5054355;28;20025;-83
2022/01/12 07:59:37;;;;;;;6.95;2.72;;;0.60;99.90;;;;;;5055350;28;20071;-82
2022/01/12 08:02:03;;;;;;;8.00;3.53;;;0.60;99.90;;;;;;5054610;28;20041;-83
2022/01/12 08:04:28;;;;;;;15.43;5.28;;;0.60;99.90;;;;;;5054121;28;20107;-82
2022/01/12 08:06:55;;;;;;;16.88;7.72;;;0.50;99.90;;;;;;5054313;28;20033;-83
2022/01/12 08:09:21;;;;;;;174.02;15.68;;;0.60;99.90;;;;;;5053722;28;20053;-82
2022/01/12 08:11:47;;;;;;;23.88;9.10;;;0.80;99.90;;;;;;5054177;28;20057;-83
2022/01/12 08:14:13;;;;;;;21.55;10.73;;;1.00;99.90;;;;;;5053250;28;20025;-83
2022/01/12 08:16:39;;;;;;;18.80;8.65;;;0.90;99.90;;;;;;5052706;28;20044;-82
2022/01/12 08:19:05;;;;;;;25.42;8.95;;;0.90;99.90;;;;;;5042419;28;20412;-83
2022/01/12 08:21:30;;;;;;;35.63;8.32;;;1.10;99.90;;;;;;5035700;28;20017;-83
2022/01/12 08:23:56;;;;;;;17.63;5.50;;;1.20;99.90;;;;;;5039408;28;20013;-82
2022/01/12 08:26:21;;;;;;;19.15;5.82;;;1.20;99.90;;;;;;5047157;28;20053;-83
2022/01/12 08:28:47;;;;;;;15.85;4.20;;;1.40;99.90;;;;;;5044872;28;20037;-82
2022/01/12 08:31:12;;;;;;;16.55;4.65;;;1.60;99.90;;;;;;5033521;28;20375;-83
2022/01/12 08:33:38;;;;;;;10.18;3.85;;;1.90;99.90;;;;;;5036214;28;20041;-84
2022/01/12 08:36:04;;;;;;;7.55;3.55;;;1.90;99.90;;;;;;5034796;28;20440;-83
2022/01/12 08:38:30;;;;;;;9.07;3.08;;;1.90;99.90;;;;;;5035116;28;20024;-83
2022/01/12 08:40:55;;;;;;;14.95;3.97;;;2.30;99.90;;;;;;5035016;28;20381;-83
2022/01/12 08:43:21;;;;;;;21.02;3.67;;;2.20;99.90;;;;;;5039105;28;20112;-83
2022/01/12 08:45:47;;;;;;;13.27;2.95;;;2.50;99.90;;;;;;5039785;28;20025;-83
2022/01/12 08:48:12;;;;;;;6.40;2.55;;;2.70;99.90;;;;;;5048275;28;20025;-83
2022/01/12 08:50:38;;;;;;;16.48;3.65;;;2.70;99.90;;;;;;5042594;28;20037;-83
2022/01/12 08:53:04;;;;;;;8.50;2.72;;;2.70;99.90;;;;;;5038506;28;20099;-83
2022/01/12 08:55:29;;;;;;;5.93;2.22;;;3.10;99.90;;;;;;5036841;28;20112;-84
2022/01/12 08:57:58;;;;;;;8.88;2.63;;;3.20;99.90;;;;;;5041422;28;20021;-82
2022/01/12 09:00:24;;;;;;;27.75;3.10;;;3.20;99.90;;;;;;5036493;28;20472;-82
2022/01/12 09:02:50;;;;;;;33.97;4.35;;;3.00;99.90;;;;;;5033160;28;20029;-83
2022/01/12 09:05:15;;;;;;;17.27;3.60;;;3.10;99.90;;;;;;5035976;28;20043;-83
2022/01/12 09:07:42;;;;;;;14.55;4.25;;;3.20;99.90;;;;;;5036475;28;20112;-83
2022/01/12 09:10:08;;;;;;;45.22;7.20;;;3.30;99.90;;;;;;5041868;28;20584;-83
2022/01/12 09:12:36;;;;;;;21.42;4.50;;;3.10;99.90;;;;;;5038530;28;20401;-82
2022/01/12 09:15:03;;;;;;;12.70;3.30;;;3.30;99.90;;;;;;5032346;28;20079;-80
2022/01/12 09:17:30;;;;;;;16.02;3.70;;;3.40;99.90;;;;;;5032525;28;20029;-81
2022/01/12 09:19:56;;;;;;;17.33;3.33;;;3.40;99.90;;;;;;5032897;28;20021;-80
2022/01/12 09:22:21;;;;;;;42.47;5.65;;;3.20;99.90;;;;;;5032916;28;20032;-81
2022/01/12 09:24:49;;;;;;;10.15;3.75;;;3.30;99.90;;;;;;5031785;28;20432;-84
2022/01/12 09:27:16;;;;;;;13.23;3.33;;;3.60;99.90;;;;;;5032005;28;20040;-82
2022/01/12 09:29:43;;;;;;;18.63;2.97;;;3.50;99.90;;;;;;5035893;28;20037;-82
2022/01/12 09:32:09;;;;;;;10.10;2.75;;;3.50;99.90;;;;;;5031940;28;20092;-82
2022/01/12 09:34:35;;;;;;;17.83;3.60;;;3.80;99.90;;;;;;5032159;28;20033;-82
2022/01/12 09:37:00;;;;;;;22.10;3.70;;;3.80;99.90;;;;;;5033401;28;20064;-82
2022/01/12 09:39:26;;;;;;;11.38;3.50;;;4.00;99.90;;;;;;5035649;28;20437;-82
2022/01/12 09:41:51;;;;;;;16.88;4.63;;;3.80;99.90;;;;;;5052039;28;20028;-82
2022/01/12 09:44:18;;;;;;;18.10;4.40;;;4.00;99.90;;;;;;5052856;28;20469;-83
2022/01/12 09:46:43;;;;;;;13.85;2.75;;;4.10;99.90;;;;;;5052910;28;20108;-82
2022/01/12 09:49:10;;;;;;;15.55;3.13;;;4.20;99.90;;;;;;5052107;28;20109;-82
2022/01/12 09:51:35;;;;;;;10.43;2.25;;;4.30;99.90;;;;;;5052407;28;20063;-82
2022/01/12 09:54:01;;;;;;;10.98;2.95;;;4.20;99.90;;;;;;5052457;28;20128;-82
2022/01/12 09:56:29;;;;;;;9.68;2.45;;;4.30;99.90;;;;;;5052644;28;20079;-82
2022/01/12 09:58:57;;;;;;;12.07;3.00;;;4.40;99.90;;;;;;5052559;28;20123;-82
2022/01/12 10:01:30;;;;;;;14.18;3.42;;;4.20;99.90;;;;;;5050922;28;20655;-83
2022/01/12 10:04:18;;;;;;;12.50;2.20;;;4.30;99.90;;;;;;5052792;28;20535;-82
2022/01/12 10:06:53;;;;;;;6.90;2.15;;;4.10;99.90;;;;;;5052408;28;20029;-82
2022/01/12 10:09:25;;;;;;;11.80;2.42;;;4.20;99.90;;;;;;5052547;28;20049;-82
2022/01/12 10:11:56;;;;;;;18.52;3.17;;;4.00;99.90;;;;;;5052834;28;20551;-82
2022/01/12 10:14:22;;;;;;;12.05;2.10;;;4.10;99.90;;;;;;5052519;28;20025;-82
2022/01/12 10:16:57;;;;;;;10.25;2.42;;;4.10;99.90;;;;;;5051517;28;20048;-82
2022/01/12 10:19:29;;;;;;;7.40;2.58;;;4.10;99.90;;;;;;5051063;28;20116;-82
2022/01/12 10:21:56;;;;;;;5.88;1.70;;;4.30;99.90;;;;;;5052349;28;20043;-82
2022/01/12 10:24:22;;;;;;;12.27;2.08;;;4.30;99.90;;;;;;5051918;28;20103;-82
2022/01/12 10:26:48;;;;;;;9.15;2.10;;;4.30;99.90;;;;;;5052333;28;20445;-82
2022/01/12 10:29:22;;;;;;;10.15;4.03;;;4.20;99.90;;;;;;5052509;28;20036;-82
2022/01/12 10:31:55;;;;;;;8.32;6.15;;;4.30;99.90;;;;;;5052455;28;20029;-82
2022/01/12 10:34:26;;;;;;;7.05;3.35;;;4.30;99.90;;;;;;5047432;28;20036;-81
2022/01/12 10:36:54;;;;;;;7.35;2.33;;;4.10;99.90;;;;;;5033893;28;20036;-81
2022/01/12 10:39:22;;;;;;;7.75;1.65;;;4.30;99.90;;;;;;5032942;28;20697;-82
2022/01/12 10:42:09;;;;;;;7.50;2.30;;;4.40;99.90;;;;;;5051153;28;20039;-82
2022/01/12 10:44:40;;;;;;;9.95;2.28;;;4.40;99.90;;;;;;5071562;28;20097;-82
2022/01/12 10:47:17;;;;;;;14.50;3.05;;;4.60;99.90;;;;;;5077090;28;20020;-82
2022/01/12 10:49:55;;;;;;;10.70;3.17;;;4.70;99.90;;;;;;5076841;28;20021;-82
2022/01/12 10:52:23;;;;;;;17.10;3.38;;;4.90;99.90;;;;;;5065588;28;20014;-81
2022/01/12 10:54:54;;;;;;;15.07;4.50;;;4.90;99.90;;;;;;5035923;28;20025;-81
2022/01/12 10:57:29;;;;;;;12.02;3.78;;;5.70;99.90;;;;;;5030979;28;20381;-82
2022/01/12 11:00:18;;;;;;;14.52;3.95;;;6.20;99.90;;;;;;5053114;28;20025;-82
2022/01/12 11:02:45;;;;;;;16.25;3.05;;;6.40;99.90;;;;;;5051175;28;20469;-81
2022/01/12 11:05:11;;;;;;;18.00;4.80;;;6.40;99.90;;;;;;5050720;28;20029;-81
2022/01/12 11:07:37;;;;;;;11.93;3.22;;;6.60;99.90;;;;;;5035063;28;20037;-82
2022/01/12 11:10:05;;;;;;;20.65;3.78;;;6.30;99.90;;;;;;5030454;28;20052;-82
2022/01/12 11:12:31;;;;;;;17.52;4.35;;;6.70;99.90;;;;;;5033672;28;20021;-82
2022/01/12 11:14:56;;;;;;;14.00;3.42;;;6.60;99.90;;;;;;5030551;28;20083;-82
2022/01/12 11:17:22;;;;;;;13.13;4.03;;;6.70;99.90;;;;;;5030304;28;20017;-82
2022/01/12 11:20:12;;;;;;;19.55;3.83;;;6.60;99.90;;;;;;5028162;28;20021;-82
2022/01/12 11:22:53;;;;;;;12.75;3.42;;;6.80;99.90;;;;;;5030316;28;20036;-82
2022/01/12 11:25:23;;;;;;;18.20;3.50;;;6.80;99.90;;;;;;5038332;28;20115;-82
2022/01/12 11:28:07;;;;;;;15.43;4.18;;;6.80;99.90;;;;;;5033135;28;20029;-82
2022/01/12 11:30:33;;;;;;;16.35;4.25;;;6.90;99.90;;;;;;5034030;28;20036;-82
2022/01/12 11:33:01;;;;;;;13.27;4.10;;;7.10;99.90;;;;;;5035363;28;20039;-82
2022/01/12 11:35:33;;;;;;;17.67;3.40;;;6.90;99.90;;;;;;5037868;28;20076;-83
2022/01/12 11:38:00;;;;;;;15.88;3.20;;;6.90;99.90;;;;;;5035562;28;20029;-83
2022/01/12 11:40:39;;;;;;;14.65;3.72;;;7.10;99.90;;;;;;5037677;28;20010;-83
2022/01/12 11:43:36;;;;;;;17.10;3.83;;;7.00;99.90;;;;;;5034186;28;20021;-82
2022/01/12 11:46:06;;;;;;;12.43;3.90;;;7.30;99.90;;;;;;5015007;28;20203;-82
2022/01/12 11:48:35;;;;;;;15.63;5.07;;;7.30;99.90;;;;;;5036953;28;20021;-82
2022/01/12 11:51:01;;;;;;;16.90;3.70;;;7.30;99.90;;;;;;5034135;28;20124;-83
2022/01/12 11:53:28;;;;;;;20.85;3.83;;;7.20;99.90;;;;;;5039984;28;20152;-82
2022/01/12 11:55:54;;;;;;;15.70;3.45;;;7.30;99.90;;;;;;5034269;28;20021;-82
2022/01/12 11:58:20;;;;;;;18.95;3.67;;;7.20;99.90;;;;;;5034225;28;20021;-82
2022/01/12 12:00:45;;;;;;;14.63;3.28;;;7.20;99.90;;;;;;5032483;28;20025;-82
2022/01/12 12:03:19;;;;;;;17.25;3.63;;;7.10;99.90;;;;;;5034991;28;20017;-82
2022/01/12 12:05:45;;;;;;;12.38;3.53;;;7.10;99.90;;;;;;5036764;28;20022;-82
2022/01/12 12:08:11;;;;;;;14.57;3.92;;;7.30;99.90;;;;;;5034712;28;20491;-82
2022/01/12 12:10:40;;;;;;;19.50;4.45;;;7.30;99.90;;;;;;5042350;28;20060;-84
2022/01/12 12:13:07;;;;;;;17.23;3.83;;;7.30;99.90;;;;;;5035425;28;20036;-83
2022/01/12 12:15:33;;;;;;;20.55;4.20;;;7.20;99.90;;;;;;5034419;28;20108;-83
2022/01/12 12:18:04;;;;;;;21.83;4.10;;;7.20;99.90;;;;;;5039716;28;20037;-83
2022/01/12 12:20:31;;;;;;;16.73;3.92;;;7.30;99.90;;;;;;5063081;28;20020;-83
2022/01/12 12:22:57;;;;;;;20.45;3.90;;;7.30;99.90;;;;;;5060664;28;20024;-83
2022/01/12 12:25:28;;;;;;;15.48;3.88;;;7.30;99.90;;;;;;5047974;28;20033;-83
2022/01/12 12:27:56;;;;;;;16.63;4.47;;;7.20;99.90;;;;;;5041685;28;20120;-83
2022/01/12 12:30:22;;;;;;;19.42;3.97;;;7.30;99.90;;;;;;5044002;28;20040;-83
2022/01/12 12:32:52;;;;;;;14.98;3.63;;;7.20;99.90;;;;;;5043287;28;20156;-83
2022/01/12 12:35:24;;;;;;;15.05;3.10;;;7.50;99.90;;;;;;5041507;28;20022;-83
2022/01/12 12:37:58;;;;;;;17.10;3.20;;;7.40;99.90;;;;;;5042997;28;20032;-83
2022/01/12 12:40:27;;;;;;;18.17;3.55;;;7.50;99.90;;;;;;5050098;28;20049;-83
2022/01/12 12:43:15;;;;;;;19.85;3.83;;;7.40;99.90;;;;;;5058238;28;20116;-83
2022/01/12 12:45:56;;;;;;;20.50;3.75;;;7.40;99.90;;;;;;5056392;28;20455;-83
2022/01/12 12:48:24;;;;;;;22.45;3.92;;;7.50;99.90;;;;;;5058481;28;20170;-83
2022/01/12 12:51:14;;;;;;;19.42;3.55;;;7.60;99.90;;;;;;5059193;28;20029;-83
2022/01/12 12:53:45;;;;;;;19.35;4.22;;;7.40;99.90;;;;;;5058710;28;20048;-81
2022/01/12 12:56:15;;;;;;;22.67;3.75;;;7.40;99.90;;;;;;5059914;28;20036;-81
2022/01/12 12:58:47;;;;;;;15.38;3.10;;;7.40;99.90;;;;;;5061047;28;20039;-81
2022/01/12 13:01:15;;;;;;;15.75;3.92;;;7.40;99.90;;;;;;5060363;28;20068;-81
2022/01/12 13:03:51;;;;;;;15.10;3.70;;;7.60;99.90;;;;;;5060568;28;20021;-81
2022/01/12 13:06:41;;;;;;;22.73;4.43;;;7.70;99.90;;;;;;5060620;28;20021;-81
2022/01/12 13:09:09;;;;;;;18.03;4.17;;;7.50;99.90;;;;;;5060247;28;20056;-81
2022/01/12 13:11:37;;;;;;;17.05;3.90;;;7.70;99.90;;;;;;5059946;28;20266;-81
2022/01/12 13:14:08;;;;;;;17.23;3.63;;;7.80;99.90;;;;;;5059432;28;20055;-81
2022/01/12 13:16:35;;;;;;;19.88;3.60;;;7.60;99.90;;;;;;5062125;28;20047;-81
2022/01/12 13:19:19;;;;;;;16.75;4.13;;;7.60;99.90;;;;;;5061465;28;20030;-80
2022/01/12 13:21:45;;;;;;;19.13;3.17;;;7.90;99.90;;;;;;5046652;28;20018;-80
2022/01/12 13:24:11;;;;;;;16.17;3.83;;;7.80;99.90;;;;;;5035286;28;20103;-80
2022/01/12 13:27:18;;;;;;;17.48;3.40;;;7.80;99.90;;;;;;5035069;28;20091;-80
2022/01/12 13:29:48;;;;;;;21.70;3.58;;;7.60;99.90;;;;;;5047733;28;20032;-81
2022/01/12 13:32:14;;;;;;;18.55;3.50;;;7.60;99.90;;;;;;5048966;28;20043;-81
2022/01/12 13:34:42;;;;;;;15.50;3.00;;;7.50;99.90;;;;;;5046203;28;20037;-80
2022/01/12 13:37:13;;;;;;;10.60;2.92;;;7.50;99.90;;;;;;5051268;28;20037;-80
2022/01/12 13:39:39;;;;;;;17.00;3.33;;;7.50;99.90;;;;;;5047973;28;20063;-80
2022/01/12 13:42:05;;;;;;;14.20;2.78;;;7.50;99.90;;;;;;5049368;28;20468;-81
2022/01/12 13:44:31;;;;;;;12.80;3.00;;;7.50;99.90;;;;;;5048391;28;20489;-82
2022/01/12 13:49:29;;;;;;;10.63;2.55;;;7.30;99.90;;;;;;5044871;28;20064;-81
2022/01/12 13:52:01;;;;;;;17.45;3.08;;;7.30;99.90;;;;;;5050832;28;20062;-81
2022/01/12 13:54:33;;;;;;;11.65;2.53;;;7.50;99.90;;;;;;5049827;28;20513;-80
2022/01/12 13:56:59;;;;;;;13.40;3.05;;;7.30;99.90;;;;;;5050109;28;20398;-80
2022/01/12 13:59:28;;;;;;;12.02;2.92;;;7.30;99.90;;;;;;5041061;28;20021;-80
2022/01/12 14:01:54;;;;;;;11.27;2.60;;;7.30;99.90;;;;;;5047390;28;20377;-80
2022/01/12 14:04:37;;;;;;;15.25;3.95;;;7.20;99.90;;;;;;5041521;28;20060;-80
2022/01/12 14:07:06;;;;;;;13.93;3.50;;;7.20;99.90;;;;;;5049541;28;20060;-80
2022/01/12 14:09:39;;;;;;;16.80;2.90;;;7.40;99.90;;;;;;5032188;28;20041;-81